Atoka, New Mexico
Current Conditions -  °F | °C
As of 3:32 AM on Thursday 23 Oct 2014 (Local Time) from KCNM Reporting Station
Haze Haze  
Wind Chill: 60°   Ceiling: 300
Heat Index: 60°   Visibility: 3mi
Dew Point: 58°   Wind: 7mph
Humidity: 93%   Direction: 160°SSE
Pressure: 30.1"   Gusts: NA
Location:  32.7449°N, 104.256°W
Report Text: KCNM 230932Z AUTO 16006KT 3SM BR OVC003 16/14 A3010 RMK AO2 CIG 002V006 T01560144 $
Loading
Personal Weather Stations






























Interactive Weather Map
Tropical Storm Tracking
New forecast layout! Learn more

10-Day Weather Forecast

Advertisements
Track Severe Weather on mobile